PWSweather.com
Personal Weather Stations
Station Observations
KMAMEDFI2
Medfield, MA 02052

Medfield, MA 02052

Lat: 42.1900822, Lon: -71.3296889

Elevation: 138

Station Type: Rainwise WS MK-III

http://www.medfieldweather.com

High Low Average
Temperature 73.3°F22.9°C 49.2°F9.6°C 60.2°F15.7°C
Dew Point 62.1°F16.7°C 40.6°F4.8°C 52.5°F11.4°C
Winds 5.8 mph 9.3 kmh Calm Calm 2.0 mph SSE3.2 kmh SSE
Wind Gusts 9.2 mph14.8 kmh -- 2.0 mph3.2 kmh
Humidity 98% 37% 80%
Pressure 30.05 in1017.6 mb 29.62 in1003.0 mb -
Precipitation 0.02 in0.5 mm - -
Hour Temp Dew Point Humidity Winds Wind Gusts Pressure Precip Precip Rate Daily Precip Total
12:00 AM 56.1°F13.4°C 55.2°F12.9°C 97% Calm Calm -- 30.00 in1015.9 mb - 0.00 in0.0 mm 0.00 in0.0 mm
12:10 AM 55.1°F12.8°C 54.3°F12.4°C 97% Calm Calm -- 29.99 in1015.6 mb - 0.00 in0.0 mm 0.00 in0.0 mm
12:20 AM 54.4°F12.4°C 53.6°F12.0°C 97% Calm Calm -- 30.00 in1015.9 mb - 0.00 in0.0 mm 0.00 in0.0 mm
12:30 AM 53.8°F12.1°C 52.9°F11.6°C 97% Calm Calm -- 30.00 in1015.9 mb - 0.00 in0.0 mm 0.00 in0.0 mm
12:40 AM 53.3°F11.8°C 52.4°F11.3°C 97% Calm Calm -- 30.00 in1015.9 mb - 0.00 in0.0 mm 0.00 in0.0 mm
12:50 AM 53.2°F11.8°C 52.3°F11.3°C 97% Calm Calm -- 30.00 in1015.9 mb - 0.00 in0.0 mm 0.00 in0.0 mm
01:00 AM 53.3°F11.8°C 52.5°F11.4°C 97% Calm Calm -- 30.00 in1015.9 mb - 0.00 in0.0 mm 0.00 in0.0 mm
01:10 AM 52.8°F11.6°C 51.9°F11.1°C 97% Calm Calm -- 30.01 in1016.3 mb - 0.00 in0.0 mm 0.00 in0.0 mm
01:20 AM 51.7°F10.9°C 50.9°F10.5°C 97% Calm Calm -- 30.00 in1015.9 mb - 0.00 in0.0 mm 0.00 in0.0 mm
01:30 AM 51.6°F10.9°C 50.8°F10.4°C 97% Calm Calm -- 30.00 in1015.9 mb - 0.00 in0.0 mm 0.00 in0.0 mm
01:40 AM 51.4°F10.8°C 50.6°F10.3°C 97% Calm Calm -- 29.99 in1015.6 mb - 0.00 in0.0 mm 0.00 in0.0 mm
01:50 AM 51.0°F10.6°C 50.2°F10.1°C 97% Calm Calm -- 29.99 in1015.6 mb - 0.00 in0.0 mm 0.00 in0.0 mm
02:00 AM 51.0°F10.6°C 50.2°F10.1°C 97% 1.2 mph NW1.9 kmh NW 1.2 mph1.9 kmh 29.99 in1015.6 mb - 0.00 in0.0 mm 0.00 in0.0 mm
02:10 AM 50.8°F10.4°C 50.0°F10.0°C 97% Calm Calm -- 29.99 in1015.6 mb - 0.00 in0.0 mm 0.00 in0.0 mm
02:20 AM 50.2°F10.1°C 49.4°F9.7°C 97% Calm Calm -- 29.99 in1015.6 mb - 0.00 in0.0 mm 0.00 in0.0 mm
02:30 AM 49.6°F9.8°C 48.8°F9.3°C 97% Calm Calm -- 29.98 in1015.2 mb - 0.00 in0.0 mm 0.00 in0.0 mm
02:40 AM 49.5°F9.7°C 48.7°F9.3°C 97% Calm Calm -- 29.98 in1015.2 mb - 0.00 in0.0 mm 0.00 in0.0 mm
02:50 AM 49.2°F9.6°C 48.4°F9.1°C 97% 1.2 mph SE1.9 kmh SE 2.3 mph3.7 kmh 29.98 in1015.2 mb - 0.00 in0.0 mm 0.00 in0.0 mm
03:00 AM 49.5°F9.7°C 48.7°F9.3°C 97% Calm Calm -- 29.99 in1015.6 mb - 0.00 in0.0 mm 0.00 in0.0 mm
03:10 AM 49.9°F9.9°C 49.1°F9.5°C 97% Calm Calm -- 29.98 in1015.2 mb - 0.00 in0.0 mm 0.00 in0.0 mm
03:20 AM 50.2°F10.1°C 49.4°F9.7°C 97% Calm Calm -- 29.99 in1015.6 mb - 0.00 in0.0 mm 0.00 in0.0 mm
03:30 AM 50.3°F10.2°C 49.5°F9.7°C 97% Calm Calm 1.2 mph1.9 kmh 29.99 in1015.6 mb - 0.00 in0.0 mm 0.00 in0.0 mm
03:40 AM 50.5°F10.3°C 49.7°F9.8°C 97% 1.2 mph SE1.9 kmh SE 1.2 mph1.9 kmh 29.99 in1015.6 mb - 0.00 in0.0 mm 0.00 in0.0 mm
03:50 AM 50.5°F10.3°C 49.7°F9.8°C 97% Calm Calm -- 29.99 in1015.6 mb - 0.00 in0.0 mm 0.00 in0.0 mm
04:00 AM 50.7°F10.4°C 49.8°F9.9°C 97% Calm Calm -- 29.99 in1015.6 mb - 0.00 in0.0 mm 0.00 in0.0 mm
04:10 AM 50.6°F10.3°C 49.8°F9.9°C 97% Calm Calm -- 30.00 in1015.9 mb - 0.00 in0.0 mm 0.00 in0.0 mm
04:20 AM 50.6°F10.3°C 49.8°F9.9°C 97% Calm Calm -- 30.00 in1015.9 mb - 0.00 in0.0 mm 0.00 in0.0 mm
04:30 AM 50.8°F10.4°C 49.9°F9.9°C 97% Calm Calm -- 29.99 in1015.6 mb - 0.00 in0.0 mm 0.00 in0.0 mm
04:40 AM 51.0°F10.6°C 50.2°F10.1°C 97% Calm Calm -- 30.00 in1015.9 mb - 0.00 in0.0 mm 0.00 in0.0 mm
04:50 AM 50.8°F10.4°C 49.9°F9.9°C 97% Calm Calm -- 30.00 in1015.9 mb - 0.00 in0.0 mm 0.00 in0.0 mm
05:00 AM 50.8°F10.4°C 50.0°F10.0°C 97% Calm Calm -- 30.00 in1015.9 mb - 0.00 in0.0 mm 0.00 in0.0 mm
05:10 AM 50.9°F10.5°C 50.1°F10.1°C 97% Calm Calm -- 30.00 in1015.9 mb - 0.00 in0.0 mm 0.00 in0.0 mm
05:20 AM 51.0°F10.6°C 50.2°F10.1°C 97% Calm Calm -- 30.01 in1016.3 mb - 0.00 in0.0 mm 0.00 in0.0 mm
05:30 AM 51.0°F10.6°C 50.2°F10.1°C 97% Calm Calm -- 30.01 in1016.3 mb - 0.00 in0.0 mm 0.00 in0.0 mm
05:40 AM 51.4°F10.8°C 50.6°F10.3°C 97% Calm Calm -- 30.01 in1016.3 mb - 0.00 in0.0 mm 0.00 in0.0 mm
05:50 AM 51.7°F10.9°C 50.8°F10.4°C 97% Calm Calm -- 30.01 in1016.3 mb - 0.00 in0.0 mm 0.00 in0.0 mm
06:00 AM 51.5°F10.8°C 50.7°F10.4°C 97% Calm Calm -- 30.01 in1016.3 mb - 0.00 in0.0 mm 0.00 in0.0 mm
06:10 AM 51.1°F10.6°C 50.3°F10.2°C 97% Calm Calm -- 30.01 in1016.3 mb - 0.00 in0.0 mm 0.00 in0.0 mm
06:20 AM 51.0°F10.6°C 50.2°F10.1°C 97% Calm Calm -- 30.01 in1016.3 mb - 0.00 in0.0 mm 0.00 in0.0 mm
06:30 AM 51.0°F10.6°C 50.2°F10.1°C 97% Calm Calm -- 30.01 in1016.3 mb - 0.00 in0.0 mm 0.00 in0.0 mm
06:40 AM 50.9°F10.5°C 50.0°F10.0°C 97% Calm Calm -- 30.01 in1016.3 mb - 0.00 in0.0 mm 0.00 in0.0 mm
06:50 AM 51.2°F10.7°C 50.4°F10.2°C 97% Calm Calm -- 30.02 in1016.6 mb - 0.00 in0.0 mm 0.00 in0.0 mm
07:00 AM 51.7°F10.9°C 50.8°F10.4°C 97% Calm Calm -- 30.02 in1016.6 mb - 0.00 in0.0 mm 0.00 in0.0 mm
07:10 AM 52.0°F11.1°C 51.2°F10.7°C 97% Calm Calm -- 30.02 in1016.6 mb - 0.00 in0.0 mm 0.00 in0.0 mm
07:20 AM 52.3°F11.3°C 51.4°F10.8°C 97% Calm Calm -- 30.02 in1016.6 mb - 0.00 in0.0 mm 0.00 in0.0 mm
07:30 AM 52.5°F11.4°C 51.6°F10.9°C 97% Calm Calm -- 30.02 in1016.6 mb - 0.00 in0.0 mm 0.00 in0.0 mm
07:40 AM 52.8°F11.6°C 51.9°F11.1°C 97% Calm Calm -- 30.02 in1016.6 mb - 0.00 in0.0 mm 0.00 in0.0 mm
07:50 AM 53.4°F11.9°C 52.5°F11.4°C 97% Calm Calm -- 30.03 in1016.9 mb - 0.00 in0.0 mm 0.00 in0.0 mm
08:00 AM 54.2°F12.3°C 53.3°F11.8°C 97% Calm Calm -- 30.03 in1016.9 mb - 0.00 in0.0 mm 0.00 in0.0 mm
08:10 AM 54.4°F12.4°C 53.5°F11.9°C 97% 1.2 mph WSW1.9 kmh WSW 1.2 mph1.9 kmh 30.04 in1017.3 mb - 0.00 in0.0 mm 0.00 in0.0 mm
08:20 AM 55.3°F12.9°C 54.4°F12.4°C 97% 2.3 mph W3.7 kmh W 2.3 mph3.7 kmh 30.04 in1017.3 mb - 0.00 in0.0 mm 0.00 in0.0 mm
08:30 AM 55.7°F13.2°C 54.8°F12.7°C 97% 1.2 mph SSW1.9 kmh SSW 1.2 mph1.9 kmh 30.04 in1017.3 mb - 0.00 in0.0 mm 0.00 in0.0 mm
08:40 AM 56.6°F13.7°C 54.6°F12.6°C 93% Calm Calm 2.3 mph3.7 kmh 30.04 in1017.3 mb - 0.00 in0.0 mm 0.00 in0.0 mm
08:50 AM 58.1°F14.5°C 51.3°F10.7°C 78% 1.2 mph N1.9 kmh N 1.2 mph1.9 kmh 30.04 in1017.3 mb - 0.00 in0.0 mm 0.00 in0.0 mm
09:00 AM 59.8°F15.4°C 49.2°F9.6°C 68% 2.3 mph N3.7 kmh N 2.3 mph3.7 kmh 30.04 in1017.3 mb - 0.00 in0.0 mm 0.00 in0.0 mm
09:10 AM 60.9°F16.1°C 48.6°F9.2°C 64% 1.2 mph E1.9 kmh E 3.5 mph5.6 kmh 30.04 in1017.3 mb - 0.00 in0.0 mm 0.00 in0.0 mm
09:20 AM 61.4°F16.3°C 49.9°F9.9°C 66% Calm Calm 1.2 mph1.9 kmh 30.03 in1016.9 mb - 0.00 in0.0 mm 0.00 in0.0 mm
09:30 AM 61.9°F16.6°C 49.1°F9.5°C 63% 1.2 mph NW1.9 kmh NW 1.2 mph1.9 kmh 30.04 in1017.3 mb - 0.00 in0.0 mm 0.00 in0.0 mm
09:40 AM 62.9°F17.2°C 48.3°F9.1°C 59% 3.5 mph SE5.6 kmh SE 2.3 mph3.7 kmh 30.04 in1017.3 mb - 0.00 in0.0 mm 0.00 in0.0 mm
09:50 AM 63.3°F17.4°C 45.3°F7.4°C 52% 3.5 mph SE5.6 kmh SE 2.3 mph3.7 kmh 30.04 in1017.3 mb - 0.00 in0.0 mm 0.00 in0.0 mm
10:00 AM 63.4°F17.4°C 45.4°F7.4°C 52% 2.3 mph ENE3.7 kmh ENE 2.3 mph3.7 kmh 30.04 in1017.3 mb - 0.00 in0.0 mm 0.00 in0.0 mm
10:10 AM 64.2°F17.9°C 44.6°F7.0°C 49% 3.5 mph E5.6 kmh E 3.5 mph5.6 kmh 30.03 in1016.9 mb - 0.00 in0.0 mm 0.00 in0.0 mm
10:20 AM 65.4°F18.6°C 45.7°F7.6°C 49% 2.3 mph E3.7 kmh E 2.3 mph3.7 kmh 30.03 in1016.9 mb - 0.00 in0.0 mm 0.00 in0.0 mm
10:30 AM 65.5°F18.6°C 45.8°F7.7°C 49% 2.3 mph ENE3.7 kmh ENE 2.3 mph3.7 kmh 30.03 in1016.9 mb - 0.00 in0.0 mm 0.00 in0.0 mm
10:40 AM 66.5°F19.2°C 45.1°F7.3°C 46% 3.5 mph SE5.6 kmh SE 2.3 mph3.7 kmh 30.03 in1016.9 mb - 0.00 in0.0 mm 0.00 in0.0 mm
10:50 AM 67.6°F19.8°C 44.3°F6.8°C 43% 2.3 mph E3.7 kmh E 2.3 mph3.7 kmh 30.04 in1017.3 mb - 0.00 in0.0 mm 0.00 in0.0 mm
11:00 AM 67.6°F19.8°C 41.7°F5.4°C 39% 2.3 mph SE3.7 kmh SE 2.3 mph3.7 kmh 30.04 in1017.3 mb - 0.00 in0.0 mm 0.00 in0.0 mm
11:10 AM 67.9°F19.9°C 44.5°F6.9°C 43% 2.3 mph E3.7 kmh E 2.3 mph3.7 kmh 30.04 in1017.3 mb - 0.00 in0.0 mm 0.00 in0.0 mm
11:20 AM 67.5°F19.7°C 42.3°F5.7°C 40% 1.2 mph ESE1.9 kmh ESE -- 30.04 in1017.3 mb - 0.00 in0.0 mm 0.00 in0.0 mm
11:30 AM 67.2°F19.6°C 43.3°F6.3°C 42% 2.3 mph E3.7 kmh E 2.3 mph3.7 kmh 30.04 in1017.3 mb - 0.00 in0.0 mm 0.00 in0.0 mm
11:40 AM 68.1°F20.1°C 41.5°F5.3°C 38% 1.2 mph SSE1.9 kmh SSE 2.3 mph3.7 kmh 30.05 in1017.6 mb - 0.00 in0.0 mm 0.00 in0.0 mm
11:50 AM 67.9°F19.9°C 40.6°F4.8°C 37% 1.2 mph W1.9 kmh W 2.3 mph3.7 kmh 30.05 in1017.6 mb - 0.00 in0.0 mm 0.00 in0.0 mm
12:00 PM 67.9°F19.9°C 42.7°F5.9°C 40% Calm Calm -- 30.04 in1017.3 mb - 0.00 in0.0 mm 0.00 in0.0 mm
12:10 PM 68.3°F20.2°C 43.0°F6.1°C 40% Calm Calm -- 30.03 in1016.9 mb - 0.00 in0.0 mm 0.00 in0.0 mm
12:20 PM 68.7°F20.4°C 45.3°F7.4°C 43% 3.5 mph E5.6 kmh E 2.3 mph3.7 kmh 30.02 in1016.6 mb - 0.00 in0.0 mm 0.00 in0.0 mm
12:30 PM 69.5°F20.8°C 44.8°F7.1°C 41% 3.5 mph ESE5.6 kmh ESE 3.5 mph5.6 kmh 30.01 in1016.3 mb - 0.00 in0.0 mm 0.00 in0.0 mm
12:40 PM 70.1°F21.2°C 44.0°F6.7°C 39% 4.6 mph ESE7.4 kmh ESE 5.8 mph9.3 kmh 30.00 in1015.9 mb - 0.00 in0.0 mm 0.00 in0.0 mm
12:50 PM 70.9°F21.6°C 44.7°F7.1°C 39% 1.2 mph ESE1.9 kmh ESE 2.3 mph3.7 kmh 29.99 in1015.6 mb - 0.00 in0.0 mm 0.00 in0.0 mm
01:00 PM 70.9°F21.6°C 44.7°F7.1°C 39% 3.5 mph ESE5.6 kmh ESE 2.3 mph3.7 kmh 30.00 in1015.9 mb - 0.00 in0.0 mm 0.00 in0.0 mm
01:10 PM 72.2°F22.3°C 48.4°F9.1°C 43% 1.2 mph SE1.9 kmh SE 8.1 mph13.0 kmh 29.99 in1015.6 mb - 0.00 in0.0 mm 0.00 in0.0 mm
01:20 PM 72.7°F22.6°C 46.3°F7.9°C 39% 4.6 mph SSE7.4 kmh SSE 3.5 mph5.6 kmh 29.99 in1015.6 mb - 0.00 in0.0 mm 0.00 in0.0 mm
01:30 PM 72.5°F22.5°C 46.8°F8.2°C 40% 5.8 mph E9.3 kmh E 6.9 mph11.1 kmh 29.99 in1015.6 mb - 0.00 in0.0 mm 0.00 in0.0 mm
01:40 PM 72.7°F22.6°C 50.7°F10.4°C 46% 4.6 mph SE7.4 kmh SE 9.2 mph14.8 kmh 30.00 in1015.9 mb - 0.00 in0.0 mm 0.00 in0.0 mm
01:50 PM 72.6°F22.6°C 47.5°F8.6°C 41% 5.8 mph ESE9.3 kmh ESE 6.9 mph11.1 kmh 29.99 in1015.6 mb - 0.00 in0.0 mm 0.00 in0.0 mm
02:00 PM 73.2°F22.9°C 48.7°F9.3°C 42% 3.5 mph ESE5.6 kmh ESE 5.8 mph9.3 kmh 29.99 in1015.6 mb - 0.00 in0.0 mm 0.00 in0.0 mm
02:10 PM 73.1°F22.8°C 48.6°F9.2°C 42% 3.5 mph S5.6 kmh S 3.5 mph5.6 kmh 29.97 in1014.9 mb - 0.00 in0.0 mm 0.00 in0.0 mm
02:20 PM 72.7°F22.6°C 48.9°F9.4°C 43% 3.5 mph SSE5.6 kmh SSE 5.8 mph9.3 kmh 29.97 in1014.9 mb - 0.00 in0.0 mm 0.00 in0.0 mm
02:30 PM 72.8°F22.7°C 50.8°F10.4°C 46% 4.6 mph E7.4 kmh E 5.8 mph9.3 kmh 29.97 in1014.9 mb - 0.00 in0.0 mm 0.00 in0.0 mm
02:40 PM 72.8°F22.7°C 49.0°F9.4°C 43% 3.5 mph SE5.6 kmh SE 2.3 mph3.7 kmh 29.96 in1014.6 mb - 0.00 in0.0 mm 0.00 in0.0 mm
02:50 PM 72.8°F22.7°C 50.2°F10.1°C 45% 3.5 mph E5.6 kmh E 3.5 mph5.6 kmh 29.95 in1014.2 mb - 0.00 in0.0 mm 0.00 in0.0 mm
03:00 PM 73.2°F22.9°C 50.5°F10.3°C 45% 2.3 mph E3.7 kmh E 5.8 mph9.3 kmh 29.95 in1014.2 mb - 0.00 in0.0 mm 0.00 in0.0 mm
03:10 PM 73.3°F22.9°C 50.6°F10.3°C 45% 3.5 mph E5.6 kmh E 3.5 mph5.6 kmh 29.94 in1013.9 mb - 0.00 in0.0 mm 0.00 in0.0 mm
03:20 PM 73.0°F22.8°C 51.0°F10.6°C 46% 3.5 mph SE5.6 kmh SE 3.5 mph5.6 kmh 29.94 in1013.9 mb - 0.00 in0.0 mm 0.00 in0.0 mm
03:30 PM 73.0°F22.8°C 52.1°F11.2°C 48% 4.6 mph SE7.4 kmh SE 9.2 mph14.8 kmh 29.93 in1013.5 mb - 0.00 in0.0 mm 0.00 in0.0 mm
03:40 PM 72.6°F22.6°C 52.9°F11.6°C 50% 3.5 mph SE5.6 kmh SE 5.8 mph9.3 kmh 29.93 in1013.5 mb - 0.00 in0.0 mm 0.00 in0.0 mm
03:50 PM 71.8°F22.1°C 53.7°F12.1°C 53% 3.5 mph S5.6 kmh S 5.8 mph9.3 kmh 29.92 in1013.2 mb - 0.00 in0.0 mm 0.00 in0.0 mm
04:00 PM 71.7°F22.1°C 54.1°F12.3°C 54% 2.3 mph S3.7 kmh S 2.3 mph3.7 kmh 29.91 in1012.9 mb - 0.00 in0.0 mm 0.00 in0.0 mm
04:10 PM 71.5°F21.9°C 54.5°F12.5°C 55% 2.3 mph SE3.7 kmh SE 2.3 mph3.7 kmh 29.91 in1012.9 mb - 0.00 in0.0 mm 0.00 in0.0 mm
04:20 PM 70.4°F21.3°C 56.8°F13.8°C 62% 5.8 mph SSE9.3 kmh SSE 9.2 mph14.8 kmh 29.90 in1012.5 mb - 0.00 in0.0 mm 0.00 in0.0 mm
04:30 PM 69.5°F20.8°C 57.6°F14.2°C 66% 2.3 mph SW3.7 kmh SW 2.3 mph3.7 kmh 29.89 in1012.2 mb - 0.00 in0.0 mm 0.00 in0.0 mm
04:40 PM 68.9°F20.5°C 58.3°F14.6°C 69% 3.5 mph SE5.6 kmh SE 2.3 mph3.7 kmh 29.89 in1012.2 mb - 0.00 in0.0 mm 0.00 in0.0 mm
04:50 PM 68.6°F20.3°C 58.8°F14.9°C 71% 2.3 mph ESE3.7 kmh ESE 2.3 mph3.7 kmh 29.88 in1011.9 mb - 0.00 in0.0 mm 0.00 in0.0 mm
05:00 PM 68.3°F20.2°C 58.5°F14.7°C 71% 2.3 mph SSE3.7 kmh SSE 2.3 mph3.7 kmh 29.88 in1011.9 mb - 0.00 in0.0 mm 0.00 in0.0 mm
05:10 PM 67.8°F19.9°C 59.6°F15.3°C 75% 3.5 mph E5.6 kmh E 5.8 mph9.3 kmh 29.88 in1011.9 mb - 0.00 in0.0 mm 0.00 in0.0 mm
05:20 PM 66.9°F19.4°C 60.5°F15.8°C 80% 3.5 mph SE5.6 kmh SE 5.8 mph9.3 kmh 29.87 in1011.5 mb - 0.00 in0.0 mm 0.00 in0.0 mm
05:30 PM 66.1°F18.9°C 61.1°F16.2°C 84% 3.5 mph ESE5.6 kmh ESE 5.8 mph9.3 kmh 29.86 in1011.2 mb - 0.00 in0.0 mm 0.00 in0.0 mm
05:40 PM 64.9°F18.3°C 61.3°F16.3°C 88% 2.3 mph SE3.7 kmh SE 5.8 mph9.3 kmh 29.87 in1011.5 mb - 0.00 in0.0 mm 0.00 in0.0 mm
05:50 PM 63.9°F17.7°C 62.1°F16.7°C 94% 3.5 mph SE5.6 kmh SE 3.5 mph5.6 kmh 29.86 in1011.2 mb - 0.00 in0.0 mm 0.00 in0.0 mm
06:00 PM 62.7°F17.1°C 62.1°F16.7°C 98% 2.3 mph SE3.7 kmh SE 2.3 mph3.7 kmh 29.85 in1010.8 mb - 0.00 in0.0 mm 0.00 in0.0 mm
06:10 PM 61.7°F16.5°C 61.2°F16.2°C 98% 2.3 mph SE3.7 kmh SE 2.3 mph3.7 kmh 29.85 in1010.8 mb - 0.00 in0.0 mm 0.00 in0.0 mm
06:20 PM 61.1°F16.2°C 60.6°F15.9°C 98% 1.2 mph SE1.9 kmh SE 2.3 mph3.7 kmh 29.85 in1010.8 mb - 0.00 in0.0 mm 0.00 in0.0 mm
06:30 PM 60.9°F16.1°C 60.3°F15.7°C 98% Calm Calm 1.2 mph1.9 kmh 29.84 in1010.5 mb - 0.00 in0.0 mm 0.00 in0.0 mm
06:40 PM 60.7°F15.9°C 60.2°F15.7°C 98% 1.2 mph E1.9 kmh E 2.3 mph3.7 kmh 29.84 in1010.5 mb - 0.00 in0.0 mm 0.00 in0.0 mm
06:50 PM 60.5°F15.8°C 60.0°F15.6°C 98% 2.3 mph SE3.7 kmh SE 2.3 mph3.7 kmh 29.82 in1009.8 mb - 0.00 in0.0 mm 0.00 in0.0 mm
07:00 PM 60.2°F15.7°C 59.7°F15.4°C 98% 2.3 mph SSE3.7 kmh SSE 2.3 mph3.7 kmh 29.82 in1009.8 mb - 0.00 in0.0 mm 0.00 in0.0 mm
07:10 PM 60.0°F15.6°C 59.5°F15.3°C 98% 2.3 mph SE3.7 kmh SE 2.3 mph3.7 kmh 29.82 in1009.8 mb - 0.00 in0.0 mm 0.00 in0.0 mm
07:20 PM 59.9°F15.5°C 59.3°F15.2°C 98% 2.3 mph SE3.7 kmh SE 2.3 mph3.7 kmh 29.82 in1009.8 mb - 0.00 in0.0 mm 0.00 in0.0 mm
07:30 PM 59.7°F15.4°C 59.1°F15.1°C 98% 2.3 mph ESE3.7 kmh ESE 2.3 mph3.7 kmh 29.81 in1009.5 mb - 0.01 in0.3 mm 0.01 in0.3 mm
07:40 PM 59.5°F15.3°C 59.0°F15.0°C 98% 2.3 mph SE3.7 kmh SE 2.3 mph3.7 kmh 29.81 in1009.5 mb - 0.01 in0.3 mm 0.01 in0.3 mm
07:50 PM 59.4°F15.2°C 58.8°F14.9°C 98% 1.2 mph S1.9 kmh S 2.3 mph3.7 kmh 29.80 in1009.1 mb - 0.01 in0.3 mm 0.01 in0.3 mm
08:00 PM 59.2°F15.1°C 58.7°F14.8°C 98% 3.5 mph S5.6 kmh S 5.8 mph9.3 kmh 29.79 in1008.8 mb - 0.01 in0.3 mm 0.01 in0.3 mm
08:10 PM 58.9°F14.9°C 58.3°F14.6°C 98% 2.3 mph E3.7 kmh E 2.3 mph3.7 kmh 29.79 in1008.8 mb - 0.01 in0.3 mm 0.01 in0.3 mm
08:20 PM 58.7°F14.8°C 58.1°F14.5°C 98% 3.5 mph SW5.6 kmh SW 2.3 mph3.7 kmh 29.79 in1008.8 mb - 0.01 in0.3 mm 0.01 in0.3 mm
08:30 PM 58.5°F14.7°C 58.0°F14.4°C 98% 2.3 mph S3.7 kmh S 2.3 mph3.7 kmh 29.78 in1008.5 mb - 0.00 in0.0 mm 0.01 in0.3 mm
08:40 PM 58.4°F14.7°C 57.8°F14.3°C 98% 1.2 mph S1.9 kmh S 1.2 mph1.9 kmh 29.78 in1008.5 mb - 0.00 in0.0 mm 0.01 in0.3 mm
08:50 PM 58.3°F14.6°C 57.8°F14.3°C 98% Calm Calm -- 29.77 in1008.1 mb - 0.00 in0.0 mm 0.01 in0.3 mm
09:00 PM 58.4°F14.7°C 57.8°F14.3°C 98% 1.2 mph E1.9 kmh E -- 29.77 in1008.1 mb - 0.00 in0.0 mm 0.01 in0.3 mm
09:10 PM 58.3°F14.6°C 57.8°F14.3°C 98% Calm Calm 2.3 mph3.7 kmh 29.76 in1007.8 mb - 0.00 in0.0 mm 0.01 in0.3 mm
09:20 PM 58.1°F14.5°C 57.5°F14.2°C 98% 2.3 mph SSW3.7 kmh SSW 2.3 mph3.7 kmh 29.76 in1007.8 mb - 0.01 in0.3 mm 0.02 in0.5 mm
09:30 PM 58.0°F14.4°C 57.5°F14.2°C 98% 1.2 mph SE1.9 kmh SE 2.3 mph3.7 kmh 29.76 in1007.8 mb - 0.01 in0.3 mm 0.02 in0.5 mm
09:40 PM 58.0°F14.4°C 57.5°F14.2°C 98% 1.2 mph SE1.9 kmh SE 2.3 mph3.7 kmh 29.76 in1007.8 mb - 0.01 in0.3 mm 0.02 in0.5 mm
09:50 PM 58.0°F14.4°C 57.5°F14.2°C 98% 1.2 mph SW1.9 kmh SW 2.3 mph3.7 kmh 29.75 in1007.5 mb - 0.01 in0.3 mm 0.02 in0.5 mm
10:00 PM 58.1°F14.5°C 57.5°F14.2°C 98% Calm Calm -- 29.74 in1007.1 mb - 0.01 in0.3 mm 0.02 in0.5 mm
10:10 PM 58.1°F14.5°C 57.5°F14.2°C 98% Calm Calm -- 29.73 in1006.8 mb - 0.01 in0.3 mm 0.02 in0.5 mm
10:20 PM 58.1°F14.5°C 57.5°F14.2°C 98% Calm Calm 2.3 mph3.7 kmh 29.72 in1006.4 mb - 0.00 in0.0 mm 0.02 in0.5 mm
10:30 PM 58.2°F14.6°C 57.6°F14.2°C 98% 2.3 mph S3.7 kmh S 2.3 mph3.7 kmh 29.73 in1006.8 mb - 0.00 in0.0 mm 0.02 in0.5 mm
10:40 PM 58.3°F14.6°C 57.7°F14.3°C 98% Calm Calm -- 29.72 in1006.4 mb - 0.00 in0.0 mm 0.02 in0.5 mm
10:50 PM 58.3°F14.6°C 57.7°F14.3°C 98% Calm Calm -- 29.72 in1006.4 mb - 0.00 in0.0 mm 0.02 in0.5 mm
11:00 PM 58.3°F14.6°C 57.8°F14.3°C 98% 1.2 mph SE1.9 kmh SE -- 29.71 in1006.1 mb - 0.00 in0.0 mm 0.02 in0.5 mm
11:10 PM 58.4°F14.7°C 57.9°F14.4°C 98% 1.2 mph S1.9 kmh S 2.3 mph3.7 kmh 29.70 in1005.8 mb - 0.00 in0.0 mm 0.02 in0.5 mm
11:20 PM 58.5°F14.7°C 57.9°F14.4°C 98% 3.5 mph SE5.6 kmh SE 3.5 mph5.6 kmh 29.70 in1005.8 mb - 0.00 in0.0 mm 0.02 in0.5 mm
11:30 PM 58.3°F14.6°C 57.8°F14.3°C 98% 1.2 mph SE1.9 kmh SE 2.3 mph3.7 kmh 29.69 in1005.4 mb - 0.00 in0.0 mm 0.02 in0.5 mm
11:40 PM 58.3°F14.6°C 57.8°F14.3°C 98% 2.3 mph S3.7 kmh S 2.3 mph3.7 kmh 29.68 in1005.1 mb - 0.00 in0.0 mm 0.02 in0.5 mm
11:50 PM 58.5°F14.7°C 57.9°F14.4°C 98% 2.3 mph S3.7 kmh S 2.3 mph3.7 kmh 29.67 in1004.7 mb - 0.00 in0.0 mm 0.02 in0.5 mm